aviador You're here:

LFJL Decoded Metar

METZ in FRANCE
Report Time2017-08-24 03:00:00
UTC Time2017-08-24 03:11:05
Flight Rules vfr VFR
Wind300° at 11 kt
W.Decomp.*RWY 22: 1.9 kt HW 10.8 kt RCW
W.Rank300° ranks 25
Current wind is above 300° avg. (6.9)
Visibility9999 m
Phenomena:N/A
Clouds:Few 022 Hf
Overcast 032 Hf
Expected CloudBase > 2,400 ft AGL from Temp-Dew spread
Ceiling3,200 ft
Temp19°C (ISA +6)
Dew Point13°C (68% RH)
AAT16.0°C
QNH1017 hPa
Density Alt1,604 ft
Elevation866 ft
Report Wrong Elevation
Raw Report
METAR LFJL 240300Z AUTO 30011KT 9999 FEW022/// OVC032/// 19/13 Q1017
NOSIG=

Extra information for LFJL:More info

Metar Taf Metar & Taf Last 4 Metars F.Rules Stats Wind Profile Meteogram Temp Stats Airport Information Weather charts Add Link Nearby VenuesMetar ALERT Operation Metar Decoded Social comments